Time;durP1;ratioP1;P1;durP2;ratioP2;P2;SDS_P1;SDS_P2;PMS_P1;PMS_P2;Temp;Humidity;BMP_temperature;BMP_pressure;BME280_temperature;BME280_humidity;BME280_pressure;Samples;Min_cycle;Max_cycle;Signal;HPM_P1;HPM_P2
2023/06/15 00:00:56;;;;;;;5.65;3.67;;;14.50;96.70;;;;;;5123722;27;20055;-60
2023/06/15 00:03:23;;;;;;;5.53;3.75;;;14.70;96.80;;;;;;5103051;28;20051;-60
2023/06/15 00:05:51;;;;;;;5.93;3.70;;;14.40;96.60;;;;;;5120860;27;20088;-60
2023/06/15 00:08:18;;;;;;;6.28;4.03;;;14.50;96.70;;;;;;5115793;27;20100;-60
2023/06/15 00:10:45;;;;;;;13.20;3.60;;;14.50;96.90;;;;;;5116578;27;20098;-60
2023/06/15 00:13:12;;;;;;;10.10;3.83;;;14.50;96.70;;;;;;5125832;27;20104;-59
2023/06/15 00:15:39;;;;;;;6.03;4.20;;;14.40;96.80;;;;;;5133896;27;20604;-60
2023/06/15 00:18:06;;;;;;;8.80;4.00;;;14.40;97.40;;;;;;5122500;27;20040;-61
2023/06/15 00:20:34;;;;;;;5.07;3.85;;;14.40;98.00;;;;;;5113628;28;20484;-59
2023/06/15 00:23:01;;;;;;;6.40;3.88;;;14.40;97.40;;;;;;5122124;27;20042;-60
2023/06/15 00:25:28;;;;;;;6.30;4.03;;;14.40;97.90;;;;;;5121663;27;20047;-59
2023/06/15 00:27:55;;;;;;;7.63;3.95;;;14.60;98.40;;;;;;5134236;27;20446;-59
2023/06/15 00:30:21;;;;;;;6.38;4.63;;;14.30;98.20;;;;;;5115853;27;20046;-60
2023/06/15 00:32:48;;;;;;;5.82;3.47;;;14.30;98.00;;;;;;5093214;28;20048;-59
2023/06/15 00:35:15;;;;;;;6.78;3.83;;;14.30;98.10;;;;;;5099378;27;20039;-60
2023/06/15 00:37:42;;;;;;;7.20;4.15;;;14.20;97.60;;;;;;5116560;27;20031;-60
2023/06/15 00:40:10;;;;;;;4.22;3.45;;;14.20;97.80;;;;;;5115076;27;20070;-60
2023/06/15 00:42:37;;;;;;;6.15;3.85;;;14.30;98.00;;;;;;5098279;28;20048;-61
2023/06/15 00:45:06;;;;;;;6.00;3.83;;;14.20;97.80;;;;;;5122304;27;20043;-60
2023/06/15 00:47:38;;;;;;;7.10;3.83;;;14.20;97.90;;;;;;5115184;27;20051;-59
2023/06/15 00:50:10;;;;;;;6.95;3.88;;;14.20;98.00;;;;;;5125300;27;20039;-60
2023/06/15 00:52:37;;;;;;;8.45;3.90;;;14.20;98.00;;;;;;5102269;28;20051;-60
2023/06/15 00:55:05;;;;;;;6.28;3.92;;;14.10;98.00;;;;;;5113078;28;20039;-59
2023/06/15 00:57:34;;;;;;;6.32;3.78;;;14.10;98.40;;;;;;5079722;28;20036;-61
2023/06/15 01:00:01;;;;;;;4.90;4.13;;;14.10;98.20;;;;;;5105055;28;20043;-61
2023/06/15 01:02:29;;;;;;;5.72;3.80;;;14.00;98.60;;;;;;5095291;27;20043;-59
2023/06/15 01:04:56;;;;;;;5.80;3.85;;;14.00;98.90;;;;;;5118464;27;20031;-60
2023/06/15 01:07:27;;;;;;;6.65;3.80;;;14.00;99.00;;;;;;5099761;28;20180;-60
2023/06/15 01:09:57;;;;;;;7.97;3.90;;;13.90;99.00;;;;;;5114871;27;20096;-59
2023/06/15 01:12:25;;;;;;;7.93;3.90;;;13.80;98.90;;;;;;5116186;27;20061;-60
2023/06/15 01:14:52;;;;;;;6.38;4.03;;;13.80;99.10;;;;;;5106996;27;20622;-60
2023/06/15 01:17:23;;;;;;;5.00;3.65;;;13.80;99.50;;;;;;5102587;27;20043;-59
2023/06/15 01:19:57;;;;;;;6.65;4.25;;;13.80;99.70;;;;;;5132933;27;20062;-60
2023/06/15 01:22:45;;;;;;;7.95;4.28;;;13.80;99.50;;;;;;5115510;27;20047;-59
2023/06/15 01:25:26;;;;;;;5.80;3.72;;;13.80;99.80;;;;;;5114592;27;20051;-59
2023/06/15 01:28:01;;;;;;;7.97;4.07;;;13.80;99.80;;;;;;5122339;27;20027;-60
2023/06/15 01:30:32;;;;;;;6.90;3.85;;;13.70;99.90;;;;;;5131523;27;20126;-58
2023/06/15 01:32:59;;;;;;;8.35;4.40;;;13.70;99.90;;;;;;5117280;27;20058;-60
2023/06/15 01:35:26;;;;;;;5.60;3.83;;;13.60;99.90;;;;;;5090514;28;20040;-60
2023/06/15 01:37:53;;;;;;;5.88;4.25;;;13.50;99.90;;;;;;5093859;28;20031;-59
2023/06/15 01:40:20;;;;;;;7.00;4.20;;;13.50;99.90;;;;;;5111257;28;20050;-60
2023/06/15 01:42:47;;;;;;;4.72;3.65;;;13.50;99.90;;;;;;5094107;28;20423;-60
2023/06/15 01:45:15;;;;;;;6.50;4.57;;;13.40;99.90;;;;;;5102157;27;20667;-60
2023/06/15 01:47:43;;;;;;;10.68;4.30;;;13.30;99.90;;;;;;5132777;27;20043;-59
2023/06/15 01:50:11;;;;;;;8.00;4.93;;;13.10;99.90;;;;;;5117083;27;20074;-61
2023/06/15 01:52:38;;;;;;;6.75;4.57;;;13.00;99.90;;;;;;5102822;27;20044;-60
2023/06/15 01:55:07;;;;;;;7.53;4.88;;;12.90;99.90;;;;;;5113989;27;20039;-59
2023/06/15 01:57:39;;;;;;;8.05;4.05;;;12.80;99.90;;;;;;5112232;27;20031;-59
2023/06/15 02:00:08;;;;;;;7.05;4.32;;;12.80;99.90;;;;;;5091479;28;20047;-60
2023/06/15 02:02:40;;;;;;;4.78;3.75;;;12.70;99.90;;;;;;5115083;27;20079;-61
2023/06/15 02:05:09;;;;;;;5.93;4.30;;;12.80;99.90;;;;;;5114078;27;20499;-60
2023/06/15 02:07:36;;;;;;;6.88;4.03;;;12.80;99.90;;;;;;5110360;27;20039;-60
2023/06/15 02:10:05;;;;;;;6.32;4.03;;;12.80;99.90;;;;;;5109580;27;20032;-60
2023/06/15 02:12:31;;;;;;;6.47;4.35;;;12.70;99.90;;;;;;5126082;27;20067;-59
2023/06/15 02:15:01;;;;;;;7.15;4.32;;;12.80;99.90;;;;;;5113141;28;20039;-61
2023/06/15 02:17:30;;;;;;;8.07;3.90;;;12.80;99.90;;;;;;5122737;28;20058;-60
2023/06/15 02:19:57;;;;;;;6.40;4.15;;;12.70;99.90;;;;;;5096790;28;20527;-59
2023/06/15 02:22:26;;;;;;;5.32;3.95;;;12.70;99.90;;;;;;5113690;28;20035;-60
2023/06/15 02:24:53;;;;;;;7.30;3.95;;;12.70;99.90;;;;;;5089034;28;20040;-61
2023/06/15 02:27:19;;;;;;;5.35;4.10;;;12.60;99.90;;;;;;5124003;28;20420;-59
2023/06/15 02:29:46;;;;;;;5.97;4.32;;;12.60;99.90;;;;;;5098331;28;20055;-60
2023/06/15 02:32:34;;;;;;;7.32;4.85;;;12.60;99.90;;;;;;5092296;28;20055;-60
2023/06/15 02:35:08;;;;;;;6.45;4.40;;;12.50;99.90;;;;;;5102317;27;20035;-60
2023/06/15 02:37:36;;;;;;;4.93;4.13;;;12.50;99.90;;;;;;5132661;27;20101;-60
2023/06/15 02:40:04;;;;;;;8.15;4.53;;;12.50;99.90;;;;;;5098330;27;20117;-57
2023/06/15 02:42:32;;;;;;;6.32;4.07;;;12.50;99.90;;;;;;5107379;27;20088;-61
2023/06/15 02:44:59;;;;;;;8.25;3.90;;;12.50;99.90;;;;;;5127612;27;20491;-59
2023/06/15 02:47:26;;;;;;;;;;;12.40;99.90;;;;;;5116474;27;20130;-59
2023/06/15 02:49:54;;;;;;;8.87;4.53;;;12.30;99.90;;;;;;5092779;27;19990;-60
2023/06/15 02:52:21;;;;;;;7.90;4.82;;;12.20;99.90;;;;;;5124228;27;20281;-59
2023/06/15 02:54:48;;;;;;;7.22;4.45;;;12.20;99.90;;;;;;5107799;27;20082;-60
2023/06/15 02:57:18;;;;;;;6.57;4.45;;;12.20;99.90;;;;;;5119672;27;20067;-59
2023/06/15 03:00:05;;;;;;;5.90;4.80;;;12.10;99.90;;;;;;5113054;27;20074;-60
2023/06/15 03:02:36;;;;;;;6.47;4.45;;;12.00;99.90;;;;;;5098328;27;20412;-60
2023/06/15 03:05:03;;;;;;;8.90;4.82;;;11.90;99.90;;;;;;5126034;27;20032;-60
2023/06/15 03:07:41;;;;;;;6.75;4.20;;;11.90;99.90;;;;;;5105338;27;20047;-60
2023/06/15 03:10:19;;;;;;;6.15;4.78;;;11.90;99.90;;;;;;5102148;28;20484;-59
2023/06/15 03:12:47;;;;;;;6.68;4.57;;;11.90;99.90;;;;;;5106756;27;20043;-59
2023/06/15 03:15:14;;;;;;;7.60;4.53;;;11.90;99.90;;;;;;5107352;27;20500;-58
2023/06/15 03:17:42;;;;;;;6.85;4.20;;;11.90;99.90;;;;;;5100111;27;20123;-59
2023/06/15 03:20:11;;;;;;;6.47;4.30;;;11.90;99.90;;;;;;5111348;27;20112;-58
2023/06/15 03:22:40;;;;;;;7.93;4.60;;;11.90;99.90;;;;;;5099899;28;20122;-59
2023/06/15 03:25:10;;;;;;;6.88;4.50;;;11.80;99.90;;;;;;5116901;27;20036;-60
2023/06/15 03:27:37;;;;;;;6.38;4.45;;;11.90;99.90;;;;;;5110038;27;20100;-60
2023/06/15 03:30:10;;;;;;;7.25;4.47;;;11.90;99.90;;;;;;5100100;28;20058;-60
2023/06/15 03:32:40;;;;;;;7.93;4.90;;;12.00;99.90;;;;;;5098709;27;20407;-60
2023/06/15 03:35:07;;;;;;;7.57;4.55;;;12.10;99.90;;;;;;5134213;27;20031;-60
2023/06/15 03:37:37;;;;;;;5.70;4.03;;;12.00;99.90;;;;;;5098880;27;20039;-59
2023/06/15 03:40:05;;;;;;;7.15;4.47;;;12.00;99.90;;;;;;5105161;27;20039;-59
2023/06/15 03:42:32;;;;;;;6.10;4.75;;;12.10;99.90;;;;;;5107855;27;20403;-59
2023/06/15 03:45:00;;;;;;;13.18;4.78;;;12.10;99.90;;;;;;5109753;27;20395;-59
2023/06/15 03:47:28;;;;;;;8.75;4.47;;;12.10;99.90;;;;;;5115983;27;20108;-60
2023/06/15 03:49:55;;;;;;;7.25;5.00;;;12.10;99.90;;;;;;5103858;28;20051;-59
2023/06/15 03:52:25;;;;;;;7.93;4.63;;;12.10;99.90;;;;;;5099597;28;20697;-60
2023/06/15 03:54:51;;;;;;;8.98;5.07;;;12.00;99.90;;;;;;5133984;27;20045;-60
2023/06/15 03:57:19;;;;;;;7.32;4.72;;;11.90;99.90;;;;;;5099469;27;20050;-61
2023/06/15 03:59:46;;;;;;;7.05;4.43;;;11.80;99.90;;;;;;5115029;27;20046;-61
2023/06/15 04:02:13;;;;;;;7.80;4.32;;;11.90;99.90;;;;;;5104199;27;20478;-59
2023/06/15 04:04:40;;;;;;;5.15;4.13;;;12.00;99.90;;;;;;5099984;28;20040;-59
2023/06/15 04:07:08;;;;;;;7.25;4.53;;;12.10;99.90;;;;;;5100953;27;20532;-60
2023/06/15 04:09:36;;;;;;;9.00;4.43;;;12.30;99.90;;;;;;5097370;27;20046;-57
2023/06/15 04:12:04;;;;;;;8.48;4.50;;;12.40;99.90;;;;;;5091764;27;20100;-57
2023/06/15 04:14:32;;;;;;;6.03;4.85;;;12.50;99.90;;;;;;5114929;27;20043;-59
2023/06/15 04:17:00;;;;;;;5.90;4.38;;;12.60;99.90;;;;;;5103902;28;20126;-60
2023/06/15 04:19:27;;;;;;;9.10;5.15;;;12.60;99.90;;;;;;5109975;28;20703;-58
2023/06/15 04:21:55;;;;;;;5.47;4.45;;;12.70;99.90;;;;;;5090084;27;20038;-59
2023/06/15 04:24:22;;;;;;;8.30;4.72;;;12.80;99.90;;;;;;5115908;27;20047;-60
2023/06/15 04:26:49;;;;;;;6.80;4.65;;;12.90;99.90;;;;;;5093688;28;20512;-59
2023/06/15 04:29:18;;;;;;;10.40;5.30;;;13.00;99.90;;;;;;5096891;28;20035;-60
2023/06/15 04:31:54;;;;;;;10.20;4.68;;;13.00;99.90;;;;;;5100403;27;20039;-60
2023/06/15 04:34:27;;;;;;;7.60;4.20;;;13.00;99.90;;;;;;5104802;27;20467;-60
2023/06/15 04:36:54;;;;;;;10.43;4.80;;;12.80;99.90;;;;;;5092789;28;20293;-57
2023/06/15 04:39:25;;;;;;;6.15;4.75;;;12.80;99.90;;;;;;5101764;27;20480;-57
2023/06/15 04:41:57;;;;;;;8.52;4.88;;;12.80;99.90;;;;;;5100207;27;20389;-59
2023/06/15 04:44:24;;;;;;;7.50;4.82;;;12.90;99.90;;;;;;5098585;28;20036;-61
2023/06/15 04:46:51;;;;;;;;;;;12.90;99.90;;;;;;5096924;28;20150;-60
2023/06/15 04:49:19;;;;;;;6.32;4.68;;;13.00;99.90;;;;;;5107375;27;19998;-56
2023/06/15 04:51:48;;;;;;;10.18;5.20;;;13.10;99.90;;;;;;5078983;28;20074;-57
2023/06/15 04:54:15;;;;;;;8.27;5.30;;;13.30;99.90;;;;;;5100056;27;20062;-59
2023/06/15 04:56:42;;;;;;;7.90;5.70;;;13.30;99.90;;;;;;5126528;27;20500;-61
2023/06/15 04:59:09;;;;;;;14.52;6.93;;;13.50;99.90;;;;;;5095507;28;20062;-60
2023/06/15 05:01:37;;;;;;;10.30;7.35;;;13.50;99.90;;;;;;5094211;27;20050;-59
2023/06/15 05:04:08;;;;;;;8.57;5.00;;;13.60;99.90;;;;;;5106417;27;20043;-61
2023/06/15 05:06:35;;;;;;;;;;;13.70;99.90;;;;;;5114070;27;20434;-58
2023/06/15 05:09:02;;;;;;;10.05;5.28;;;13.60;99.90;;;;;;5094969;28;19946;-61
2023/06/15 05:11:29;;;;;;;11.43;5.47;;;13.60;99.90;;;;;;5097518;28;20044;-59
2023/06/15 05:13:56;;;;;;;9.93;6.30;;;13.60;99.90;;;;;;5114742;27;20035;-59
2023/06/15 05:16:23;;;;;;;10.05;5.65;;;13.60;99.90;;;;;;5101237;28;20063;-60
2023/06/15 05:18:50;;;;;;;18.75;6.45;;;13.70;99.90;;;;;;5099307;27;20074;-60
2023/06/15 05:21:17;;;;;;;6.68;5.32;;;13.80;99.90;;;;;;5133015;27;20050;-60
2023/06/15 05:23:45;;;;;;;7.45;5.30;;;13.90;99.90;;;;;;5113456;27;20066;-60
2023/06/15 05:26:12;;;;;;;8.73;5.07;;;14.00;99.90;;;;;;5097603;28;20040;-61
2023/06/15 05:28:56;;;;;;;15.07;6.18;;;14.00;99.90;;;;;;5094572;28;20500;-60
2023/06/15 05:31:24;;;;;;;8.05;6.03;;;14.10;99.90;;;;;;5104328;27;20039;-61
2023/06/15 05:33:51;;;;;;;15.35;6.53;;;14.40;99.90;;;;;;5083128;27;20062;-61
2023/06/15 05:36:18;;;;;;;7.97;6.22;;;14.70;99.90;;;;;;5102085;27;20047;-60
2023/06/15 05:39:06;;;;;;;13.98;6.70;;;14.70;99.90;;;;;;5127546;27;20027;-60
2023/06/15 05:41:33;;;;;;;10.73;7.00;;;14.60;99.90;;;;;;5086828;28;20044;-61
2023/06/15 05:44:01;;;;;;;8.82;5.80;;;14.70;99.90;;;;;;5099152;27;20069;-60
2023/06/15 05:46:29;;;;;;;10.32;6.90;;;14.70;99.90;;;;;;5104941;27;20041;-60
2023/06/15 05:48:57;;;;;;;9.10;6.15;;;14.70;99.90;;;;;;5090659;28;20382;-59
2023/06/15 05:51:24;;;;;;;9.93;6.15;;;14.90;99.90;;;;;;5103607;27;20054;-59
2023/06/15 05:53:51;;;;;;;7.47;6.18;;;15.00;99.90;;;;;;5086516;28;20122;-60
2023/06/15 05:56:18;;;;;;;9.77;5.90;;;15.00;99.90;;;;;;5093728;28;20047;-59
2023/06/15 05:58:45;;;;;;;8.98;5.97;;;15.00;99.90;;;;;;5121292;27;20411;-61
2023/06/15 06:01:12;;;;;;;9.98;6.40;;;15.00;99.90;;;;;;5103515;27;20491;-59
2023/06/15 06:03:40;;;;;;;8.68;6.53;;;15.00;99.90;;;;;;5113966;27;20449;-60
2023/06/15 06:06:07;;;;;;;8.65;5.70;;;15.00;99.90;;;;;;5105197;28;20085;-60
2023/06/15 06:08:34;;;;;;;8.30;5.75;;;15.00;99.90;;;;;;5100825;28;20039;-59
2023/06/15 06:11:03;;;;;;;11.50;6.13;;;15.10;99.90;;;;;;5112986;27;20043;-60
2023/06/15 06:13:36;;;;;;;16.02;7.18;;;15.20;99.90;;;;;;5101931;28;20048;-60
2023/06/15 06:16:03;;;;;;;13.00;5.95;;;15.30;99.90;;;;;;5110810;28;20032;-59
2023/06/15 06:18:30;;;;;;;10.70;6.38;;;15.40;99.90;;;;;;5103065;28;20105;-60
2023/06/15 06:20:57;;;;;;;10.25;6.57;;;15.50;99.90;;;;;;5103855;27;20130;-59
2023/06/15 06:23:25;;;;;;;13.93;6.53;;;15.60;99.90;;;;;;5107032;28;20462;-59
2023/06/15 06:25:53;;;;;;;8.90;6.72;;;15.70;99.90;;;;;;5108165;28;20035;-60
2023/06/15 06:28:21;;;;;;;11.85;6.57;;;15.90;99.90;;;;;;5101738;28;20035;-60
2023/06/15 06:30:47;;;;;;;11.13;6.07;;;16.00;99.90;;;;;;5132019;27;20045;-60
2023/06/15 06:33:14;;;;;;;12.80;6.63;;;16.10;99.90;;;;;;5112744;28;20044;-59
2023/06/15 06:35:41;;;;;;;10.75;6.60;;;16.30;99.90;;;;;;5103437;28;20144;-60
2023/06/15 06:38:08;;;;;;;12.30;6.70;;;16.20;99.90;;;;;;5123422;28;20062;-59
2023/06/15 06:40:35;;;;;;;9.20;6.50;;;16.20;99.90;;;;;;5123085;28;20047;-60
2023/06/15 06:43:03;;;;;;;9.65;6.63;;;16.40;99.90;;;;;;5119670;28;20040;-58
2023/06/15 06:45:30;;;;;;;14.63;6.68;;;16.60;99.90;;;;;;5100369;28;20097;-60
2023/06/15 06:47:56;;;;;;;10.02;6.45;;;16.60;99.90;;;;;;5111714;28;20047;-59
2023/06/15 06:50:24;;;;;;;12.75;6.72;;;16.60;99.90;;;;;;5113096;28;20036;-60
2023/06/15 06:52:50;;;;;;;9.63;6.13;;;16.60;99.90;;;;;;5110400;27;20047;-60
2023/06/15 06:55:17;;;;;;;11.52;7.15;;;16.70;99.90;;;;;;5131167;28;20058;-60
2023/06/15 06:57:44;;;;;;;13.20;6.65;;;16.90;99.90;;;;;;5130577;28;20096;-60
2023/06/15 07:00:12;;;;;;;13.00;6.75;;;17.00;99.90;;;;;;5100181;28;20506;-60
2023/06/15 07:02:39;;;;;;;12.23;6.47;;;17.30;99.90;;;;;;5124760;27;20035;-60
2023/06/15 07:05:06;;;;;;;11.55;6.25;;;17.50;99.90;;;;;;5123465;28;20143;-60
2023/06/15 07:07:32;;;;;;;13.15;6.30;;;17.70;99.90;;;;;;5132043;28;20089;-60
2023/06/15 07:09:59;;;;;;;12.48;6.70;;;17.90;99.90;;;;;;5130208;28;20447;-59
2023/06/15 07:12:26;;;;;;;10.52;6.53;;;18.00;99.90;;;;;;5105289;28;20050;-60
2023/06/15 07:14:53;;;;;;;10.85;6.40;;;17.90;99.90;;;;;;5121212;28;20047;-59
2023/06/15 07:17:19;;;;;;;10.75;5.82;;;17.70;99.90;;;;;;5126402;28;20047;-60
2023/06/15 07:19:46;;;;;;;9.40;6.70;;;17.90;99.90;;;;;;5118812;27;20043;-60
2023/06/15 07:22:13;;;;;;;10.77;6.28;;;18.30;99.90;;;;;;5133881;27;20391;-60
2023/06/15 07:24:40;;;;;;;19.60;6.25;;;18.30;99.90;;;;;;5126934;27;20050;-60
2023/06/15 07:27:07;;;;;;;15.43;6.35;;;18.20;99.90;;;;;;5128877;27;20071;-59
2023/06/15 07:29:34;;;;;;;12.95;5.53;;;18.20;99.90;;;;;;5112050;27;20043;-60
2023/06/15 07:32:00;;;;;;;7.95;5.30;;;18.30;99.90;;;;;;5135466;27;20054;-60
2023/06/15 07:34:27;;;;;;;8.52;5.72;;;18.40;99.90;;;;;;5135017;27;20047;-60
2023/06/15 07:36:54;;;;;;;9.80;5.65;;;18.50;99.90;;;;;;5117367;27;20048;-60
2023/06/15 07:39:21;;;;;;;10.25;5.32;;;18.70;99.90;;;;;;5112856;27;20039;-60
2023/06/15 07:41:48;;;;;;;10.32;5.63;;;18.90;99.90;;;;;;5122598;27;20481;-61
2023/06/15 07:44:14;;;;;;;10.35;5.82;;;18.90;99.30;;;;;;5133928;27;20112;-61
2023/06/15 07:46:42;;;;;;;6.38;5.03;;;18.80;99.00;;;;;;5117998;27;20066;-60
2023/06/15 07:49:09;;;;;;;;;;;18.70;99.90;;;;;;5118736;27;20061;-60
2023/06/15 07:51:35;;;;;;;10.32;5.72;;;18.60;99.90;;;;;;5127244;27;20387;-60
2023/06/15 07:54:17;;;;;;;8.20;5.30;;;18.60;99.90;;;;;;5114005;27;20050;-60
2023/06/15 07:56:45;;;;;;;7.63;4.95;;;18.60;99.80;;;;;;5135016;27;20039;-60
2023/06/15 07:59:12;;;;;;;7.68;5.28;;;18.70;99.90;;;;;;5107756;27;20081;-59
2023/06/15 08:01:39;;;;;;;7.85;4.60;;;18.90;99.90;;;;;;5109559;27;20040;-60
2023/06/15 08:04:06;;;;;;;11.27;5.47;;;19.20;99.90;;;;;;5117210;27;20041;-60
2023/06/15 08:06:32;;;;;;;11.48;5.68;;;19.40;99.90;;;;;;5120490;27;20070;-60
2023/06/15 08:08:59;;;;;;;7.93;5.25;;;19.60;99.90;;;;;;5123351;27;20047;-61
2023/06/15 08:11:28;;;;;;;8.77;5.60;;;19.60;99.90;;;;;;5115164;27;20051;-60
2023/06/15 08:13:54;;;;;;;11.00;5.47;;;19.60;99.70;;;;;;5116043;27;20036;-59
2023/06/15 08:16:21;;;;;;;14.98;6.05;;;19.80;99.70;;;;;;5105122;28;20051;-60
2023/06/15 08:18:48;;;;;;;9.30;5.53;;;19.80;99.90;;;;;;5122647;27;20050;-61
2023/06/15 08:21:17;;;;;;;10.43;5.40;;;19.80;99.90;;;;;;5133579;27;20051;-59
2023/06/15 08:23:43;;;;;;;8.10;5.13;;;19.90;99.90;;;;;;5115553;27;20066;-61
2023/06/15 08:26:10;;;;;;;10.40;4.97;;;19.90;99.90;;;;;;5107863;27;20039;-61
2023/06/15 08:28:37;;;;;;;9.02;5.65;;;20.00;99.90;;;;;;5134360;27;20492;-61
2023/06/15 08:31:19;;;;;;;11.02;6.10;;;19.90;99.90;;;;;;5134329;27;20099;-61
2023/06/15 08:33:45;;;;;;;10.38;5.78;;;20.30;98.90;;;;;;5126070;27;20073;-61
2023/06/15 08:36:12;;;;;;;8.27;6.15;;;20.60;98.60;;;;;;5130616;27;20047;-61
2023/06/15 08:38:39;;;;;;;11.82;5.35;;;20.80;98.60;;;;;;5129323;27;20043;-61
2023/06/15 08:41:06;;;;;;;6.75;5.45;;;20.60;99.00;;;;;;5120479;27;20039;-61
2023/06/15 08:43:34;;;;;;;10.52;5.30;;;20.90;99.70;;;;;;5134155;27;20043;-61
2023/06/15 08:46:02;;;;;;;7.25;5.10;;;21.20;97.70;;;;;;5133668;27;20039;-61
2023/06/15 08:48:32;;;;;;;6.30;4.95;;;21.30;97.60;;;;;;5125577;27;20046;-61
2023/06/15 08:50:59;;;;;;;12.73;5.13;;;21.50;97.50;;;;;;5111284;27;20050;-61
2023/06/15 08:53:27;;;;;;;7.07;4.88;;;21.50;97.70;;;;;;5113243;28;20126;-61
2023/06/15 08:55:54;;;;;;;16.85;5.35;;;21.10;98.40;;;;;;5122409;27;20042;-60
2023/06/15 08:58:22;;;;;;;11.85;5.70;;;20.70;97.90;;;;;;5123096;27;20039;-61
2023/06/15 09:00:50;;;;;;;16.25;5.43;;;20.50;98.60;;;;;;5133526;27;20100;-61
2023/06/15 09:03:20;;;;;;;11.35;5.22;;;20.20;99.50;;;;;;5116342;27;20031;-60
2023/06/15 09:05:47;;;;;;;9.23;5.00;;;20.10;99.60;;;;;;5133690;27;20041;-61
2023/06/15 09:08:14;;;;;;;10.18;5.50;;;20.00;99.90;;;;;;5128830;27;20036;-60
2023/06/15 09:10:41;;;;;;;10.65;4.75;;;20.00;99.90;;;;;;5128854;27;20503;-60
2023/06/15 09:13:16;;;;;;;8.13;4.50;;;20.00;99.90;;;;;;5113006;27;20407;-60
2023/06/15 09:15:50;;;;;;;8.75;4.60;;;20.00;99.00;;;;;;5102304;27;20047;-61
2023/06/15 09:18:17;;;;;;;6.68;4.07;;;20.10;99.70;;;;;;5132980;27;20519;-60
2023/06/15 09:20:43;;;;;;;7.28;4.63;;;20.20;99.70;;;;;;5107794;27;20040;-61
2023/06/15 09:23:11;;;;;;;9.27;4.82;;;20.70;99.90;;;;;;5132641;27;20384;-59
2023/06/15 09:25:41;;;;;;;5.90;4.10;;;21.20;99.20;;;;;;5133118;27;20174;-61
2023/06/15 09:28:08;;;;;;;7.50;4.30;;;21.40;97.20;;;;;;5127805;27;20391;-60
2023/06/15 09:30:39;;;;;;;5.68;4.55;;;21.40;98.00;;;;;;5111522;27;20035;-61
2023/06/15 09:33:13;;;;;;;7.78;4.53;;;21.80;96.70;;;;;;5130262;27;20126;-60
2023/06/15 09:35:59;;;;;;;8.82;4.25;;;22.10;95.90;;;;;;5120318;27;20047;-60
2023/06/15 09:38:28;;;;;;;6.30;4.65;;;22.40;95.00;;;;;;5112416;27;20035;-61
2023/06/15 09:40:55;;;;;;;5.82;4.10;;;22.20;96.30;;;;;;5132535;27;20047;-61
2023/06/15 09:43:22;;;;;;;8.75;4.22;;;22.10;96.20;;;;;;5132810;27;20062;-60
2023/06/15 09:45:50;;;;;;;;;;;21.80;97.30;;;;;;5133006;27;20039;-60
2023/06/15 09:48:16;;;;;;;8.47;4.83;;;21.50;96.90;;;;;;5126129;27;19942;-61
2023/06/15 09:50:48;;;;;;;10.65;4.47;;;21.60;97.60;;;;;;5123627;27;20050;-60
2023/06/15 09:53:16;;;;;;;9.75;4.63;;;21.70;98.30;;;;;;5115457;27;20035;-60
2023/06/15 09:55:45;;;;;;;11.25;5.07;;;21.60;97.20;;;;;;5132542;27;20377;-60
2023/06/15 09:58:12;;;;;;;9.82;5.10;;;21.40;97.80;;;;;;5115063;27;20080;-61
2023/06/15 10:00:40;;;;;;;8.98;4.75;;;21.30;98.80;;;;;;5119772;27;20036;-61
2023/06/15 10:03:09;;;;;;;10.93;5.13;;;21.60;97.90;;;;;;5120391;27;20047;-61
2023/06/15 10:05:40;;;;;;;7.72;4.32;;;22.20;98.00;;;;;;5123960;27;20043;-60
2023/06/15 10:08:11;;;;;;;7.68;4.65;;;22.70;97.10;;;;;;5130170;27;20396;-61
2023/06/15 10:10:42;;;;;;;5.15;3.92;;;23.10;95.50;;;;;;5131648;27;20046;-60
2023/06/15 10:13:13;;;;;;;9.30;4.70;;;23.00;94.00;;;;;;5119063;28;20117;-61
2023/06/15 10:15:45;;;;;;;7.90;4.10;;;23.20;93.00;;;;;;5107174;27;20039;-61
2023/06/15 10:18:13;;;;;;;7.60;4.40;;;23.40;93.50;;;;;;5114954;28;20430;-59
2023/06/15 10:20:41;;;;;;;7.50;3.88;;;23.10;93.10;;;;;;5131366;28;20038;-61
2023/06/15 10:23:15;;;;;;;6.13;4.07;;;22.70;92.90;;;;;;5118531;28;20032;-60
2023/06/15 10:25:45;;;;;;;9.80;4.05;;;22.20;92.60;;;;;;5123333;28;20496;-60
2023/06/15 10:28:16;;;;;;;8.48;4.32;;;21.70;92.90;;;;;;5132163;28;20051;-60
2023/06/15 10:30:52;;;;;;;4.65;3.60;;;21.40;93.40;;;;;;5123720;27;20046;-61
2023/06/15 10:33:28;;;;;;;5.32;3.67;;;21.30;93.40;;;;;;5111264;27;20044;-60
2023/06/15 10:36:22;;;;;;;8.40;4.15;;;21.30;93.80;;;;;;5115332;28;20039;-60
2023/06/15 10:38:58;;;;;;;6.10;3.97;;;21.40;93.10;;;;;;5123391;28;20406;-61
2023/06/15 10:41:26;;;;;;;8.07;4.32;;;21.70;93.20;;;;;;5109557;28;20031;-61
2023/06/15 10:44:03;;;;;;;10.48;4.10;;;22.30;94.20;;;;;;5123305;28;20035;-60
2023/06/15 10:46:32;;;;;;;;;;;22.70;92.70;;;;;;5113480;28;20047;-59
2023/06/15 10:49:06;;;;;;;;;;;23.00;93.30;;;;;;5127239;28;19919;-59
2023/06/15 10:51:35;;;;;;;7.57;4.35;;;23.10;92.80;;;;;;5106527;28;19930;-61
2023/06/15 10:54:04;;;;;;;7.13;4.82;;;23.10;91.60;;;;;;5121207;28;20047;-57
2023/06/15 10:56:31;;;;;;;8.40;4.85;;;23.00;92.20;;;;;;5133031;27;20031;-61
2023/06/15 10:58:59;;;;;;;10.52;4.45;;;23.00;92.70;;;;;;5113367;27;20048;-61
2023/06/15 11:01:29;;;;;;;10.48;5.15;;;23.00;91.50;;;;;;5128175;27;20039;-61
2023/06/15 11:03:56;;;;;;;8.32;4.60;;;22.70;91.00;;;;;;5103817;27;20040;-61
2023/06/15 11:06:36;;;;;;;5.63;4.15;;;22.50;91.30;;;;;;5136065;27;20038;-60
2023/06/15 11:09:04;;;;;;;6.80;4.00;;;22.40;91.30;;;;;;5118216;27;20039;-58
2023/06/15 11:11:33;;;;;;;5.18;4.43;;;22.40;91.20;;;;;;5124850;27;20043;-60
2023/06/15 11:14:05;;;;;;;10.68;4.38;;;22.40;91.10;;;;;;5120779;27;20039;-60
2023/06/15 11:16:38;;;;;;;7.47;4.40;;;22.40;91.50;;;;;;5109403;28;20044;-60
2023/06/15 11:19:14;;;;;;;6.55;4.15;;;22.30;91.70;;;;;;5123069;27;20036;-60
2023/06/15 11:21:47;;;;;;;6.35;3.88;;;22.10;90.90;;;;;;5124713;27;20032;-61
2023/06/15 11:24:15;;;;;;;11.30;4.43;;;22.10;90.50;;;;;;5116090;28;20031;-60
2023/06/15 11:26:44;;;;;;;8.35;4.70;;;22.10;90.50;;;;;;5130037;27;20042;-61
2023/06/15 11:29:12;;;;;;;7.65;4.00;;;22.40;87.40;;;;;;5122702;27;20044;-61
2023/06/15 11:31:43;;;;;;;6.25;3.35;;;23.00;87.10;;;;;;5114525;28;20040;-61
2023/06/15 11:34:10;;;;;;;5.68;3.50;;;23.50;84.60;;;;;;5129512;27;20035;-60
2023/06/15 11:36:37;;;;;;;4.07;3.42;;;24.30;84.10;;;;;;5123035;27;20682;-61
2023/06/15 11:39:04;;;;;;;4.28;3.45;;;24.60;79.60;;;;;;5134608;27;20118;-61
2023/06/15 11:41:31;;;;;;;4.85;3.60;;;24.90;78.00;;;;;;5135058;27;20027;-61
2023/06/15 11:43:58;;;;;;;5.70;3.97;;;25.00;77.20;;;;;;5108658;27;20038;-61
2023/06/15 11:46:26;;;;;;;5.57;4.15;;;25.00;80.50;;;;;;5110432;27;20042;-60
2023/06/15 11:48:57;;;;;;;6.00;4.20;;;24.80;80.20;;;;;;5118036;27;20061;-60
2023/06/15 11:51:25;;;;;;;7.18;4.40;;;24.60;83.00;;;;;;5113483;27;20039;-60
2023/06/15 11:53:53;;;;;;;8.40;4.75;;;24.30;82.30;;;;;;5123036;27;20047;-60
2023/06/15 11:56:21;;;;;;;6.53;4.57;;;24.00;79.80;;;;;;5117380;27;20087;-60
2023/06/15 11:58:49;;;;;;;8.90;4.20;;;23.50;80.30;;;;;;5122220;27;20047;-61
2023/06/15 12:01:16;;;;;;;7.38;3.70;;;23.20;83.20;;;;;;5123549;27;20522;-60
2023/06/15 12:03:47;;;;;;;;;;;23.40;82.90;;;;;;5135200;27;20035;-60
2023/06/15 12:06:32;;;;;;;6.15;3.60;;;23.70;81.90;;;;;;5120477;27;19955;-60
2023/06/15 12:08:59;;;;;;;7.35;3.90;;;24.00;82.70;;;;;;5098484;28;20040;-60
2023/06/15 12:11:26;;;;;;;;;;;24.30;78.70;;;;;;5130647;27;20484;-60
2023/06/15 12:14:05;;;;;;;5.30;3.60;;;24.50;78.60;;;;;;5098498;27;19923;-61
2023/06/15 12:16:32;;;;;;;6.72;3.72;;;24.70;77.60;;;;;;5111752;27;20391;-60
2023/06/15 12:18:59;;;;;;;4.80;3.33;;;24.60;78.10;;;;;;5117239;27;20120;-61
2023/06/15 12:21:32;;;;;;;;;;;24.10;80.40;;;;;;5130924;27;20059;-59
2023/06/15 12:24:00;;;;;;;7.43;4.18;;;23.90;80.90;;;;;;5114022;27;19919;-60
2023/06/15 12:26:32;;;;;;;8.98;4.22;;;23.50;82.20;;;;;;5134421;27;20403;-59
2023/06/15 12:29:00;;;;;;;5.85;3.80;;;23.00;80.70;;;;;;5125760;27;20476;-60
2023/06/15 12:31:34;;;;;;;4.80;3.95;;;23.30;79.80;;;;;;5107921;27;20035;-60
2023/06/15 12:34:08;;;;;;;5.63;3.70;;;23.80;80.40;;;;;;5133761;27;20066;-60
2023/06/15 12:36:40;;;;;;;5.20;4.05;;;24.00;79.20;;;;;;5111059;27;20043;-59
2023/06/15 12:39:11;;;;;;;7.03;4.18;;;24.30;82.00;;;;;;5134359;27;20385;-60
2023/06/15 12:41:41;;;;;;;4.88;3.90;;;24.60;79.30;;;;;;5113851;27;20032;-60
2023/06/15 12:44:08;;;;;;;7.22;4.00;;;24.80;79.70;;;;;;5099612;28;20048;-59
2023/06/15 12:46:38;;;;;;;7.55;4.00;;;24.70;79.30;;;;;;5113522;28;20119;-61
2023/06/15 12:49:06;;;;;;;7.88;3.75;;;24.10;76.30;;;;;;5129090;27;20036;-61
2023/06/15 12:51:33;;;;;;;6.38;3.72;;;23.40;78.10;;;;;;5114986;27;20056;-61
2023/06/15 12:54:01;;;;;;;6.00;3.80;;;23.60;78.90;;;;;;5117386;27;20035;-61
2023/06/15 12:56:28;;;;;;;6.07;3.35;;;23.60;77.70;;;;;;5133917;27;20043;-60